Decoded Metar for KTVF (THIEF RIVER in MN, USA) (IATA:TVF) | Meteo·Mobile Aviation Weather
aviador You're here:

KTVF Decoded Metar

THIEF RIVER in MN, USA
Report Time2018-12-11 00:56:00
UTC Time2018-12-11 02:02:31
Flight Rules vfr VFR
Wind250° at 04 kt
W.Decomp.*RWY 21: 3.3 kt HW 2.3 kt RCW
RWY 31: 1.7 kt HW 3.6 kt LCW
W.Rank250° ranks 24
Current wind is below 250° avg. (7.9)
Visibility9999 m
Phenomena:N/A
Clouds:N/A
Expected CloudBase > 400 ft AGL from Temp-Dew spread
CeilingNone
Temp-11°C (ISA -24)
Dew Point-12°C (92% RH)
AAT-15.6°C
QNH1015 hPa
Density Alt-1,890 ft
Elevation1,115 ft
Report Wrong Elevation
Raw Report
KTVF 110056Z AUTO 25004KT 10SM CLR M11/M12 A2998 RMK AO2 SLP177
T11111122 FZRANO=

Extra information for KTVF:More info

Metar Taf Metar & Taf Last 4 Metars F.Rules Stats Wind Profile Meteogram Temp Stats Airport Information Weather charts Add Link Nearby VenuesMetar ALERT Operation Metar Decoded Social comments

AIRNAV info for KTVF